Time;durP1;ratioP1;P1;durP2;ratioP2;P2;SDS_P1;SDS_P2;PMS_P1;PMS_P2;Temp;Humidity;BMP_temperature;BMP_pressure;BME280_temperature;BME280_humidity;BME280_pressure;Samples;Min_cycle;Max_cycle;Signal;HPM_P1;HPM_P2
2023/05/01 00:00:25;;;;;;;21.33;15.30;;;6.70;99.90;;;;;;4984104;28;20229;-85
2023/05/01 00:02:54;;;;;;;20.77;14.55;;;6.50;99.90;;;;;;4978211;28;20278;-85
2023/05/01 00:05:21;;;;;;;19.40;14.35;;;6.20;99.90;;;;;;4979912;28;20581;-85
2023/05/01 00:07:48;;;;;;;19.17;13.40;;;6.20;99.90;;;;;;4991766;28;20210;-85
2023/05/01 00:10:16;;;;;;;19.08;13.80;;;6.40;99.90;;;;;;4987764;28;20210;-85
2023/05/01 00:12:43;;;;;;;18.40;13.23;;;6.50;99.90;;;;;;4983261;28;20388;-84
2023/05/01 00:15:10;;;;;;;24.52;15.90;;;6.50;99.90;;;;;;4989057;28;20210;-84
2023/05/01 00:17:37;;;;;;;19.30;14.68;;;6.40;99.90;;;;;;4987496;28;20234;-85
2023/05/01 00:20:05;;;;;;;20.92;12.68;;;6.50;99.90;;;;;;4995234;28;20232;-86
2023/05/01 00:22:32;;;;;;;16.67;13.07;;;6.50;99.90;;;;;;4987976;28;20202;-85
2023/05/01 00:25:00;;;;;;;18.75;14.43;;;6.50;99.90;;;;;;4983425;28;20210;-84
2023/05/01 00:27:26;;;;;;;20.75;13.98;;;6.50;99.90;;;;;;4980842;28;20222;-84
2023/05/01 00:29:53;;;;;;;23.17;14.70;;;6.50;99.90;;;;;;4980097;28;20431;-85
2023/05/01 00:32:20;;;;;;;20.35;13.23;;;6.50;99.90;;;;;;4978205;28;20470;-86
2023/05/01 00:34:48;;;;;;;16.17;12.98;;;6.60;99.90;;;;;;4989617;28;20273;-84
2023/05/01 00:37:16;;;;;;;16.08;13.00;;;6.60;99.90;;;;;;4994099;28;20606;-85
2023/05/01 00:39:43;;;;;;;23.13;14.57;;;6.60;99.90;;;;;;4981785;28;20569;-86
2023/05/01 00:42:10;;;;;;;16.48;14.10;;;6.30;99.90;;;;;;4973785;28;20210;-86
2023/05/01 00:44:38;;;;;;;15.45;12.73;;;6.20;99.90;;;;;;4981835;28;20265;-87
2023/05/01 00:47:06;;;;;;;20.65;14.52;;;6.20;99.90;;;;;;4990438;28;20212;-87
2023/05/01 00:49:33;;;;;;;22.65;16.73;;;6.10;99.90;;;;;;4986416;28;20198;-87
2023/05/01 00:52:00;;;;;;;25.30;14.98;;;6.00;99.90;;;;;;4994295;28;20495;-85
2023/05/01 00:54:27;;;;;;;20.33;14.55;;;6.00;99.90;;;;;;4991271;28;20209;-84
2023/05/01 00:56:55;;;;;;;18.80;13.25;;;6.10;99.90;;;;;;4989577;28;20202;-84
2023/05/01 00:59:22;;;;;;;22.27;16.63;;;6.10;99.90;;;;;;4987835;28;20244;-85
2023/05/01 01:01:49;;;;;;;24.92;15.68;;;6.10;99.90;;;;;;4989660;28;20256;-85
2023/05/01 01:04:16;;;;;;;23.58;14.95;;;6.10;99.90;;;;;;4991530;28;20201;-84
2023/05/01 01:07:10;;;;;;;20.52;14.45;;;6.10;99.90;;;;;;4983941;28;20426;-85
2023/05/01 01:10:12;;;;;;;19.27;14.73;;;6.00;99.90;;;;;;4979253;28;20211;-84
2023/05/01 01:12:57;;;;;;;15.82;14.13;;;5.90;99.90;;;;;;4967869;28;20410;-83
2023/05/01 01:15:33;;;;;;;18.25;14.48;;;6.00;99.90;;;;;;4994631;28;20216;-82
2023/05/01 01:18:46;;;;;;;21.88;15.07;;;6.00;99.90;;;;;;4991617;28;20245;-83
2023/05/01 01:21:26;;;;;;;25.75;16.17;;;6.10;99.90;;;;;;4957116;29;20772;-84
2023/05/01 01:24:07;;;;;;;21.70;14.98;;;6.00;99.90;;;;;;4944217;29;20224;-83
2023/05/01 01:27:08;;;;;;;20.75;15.02;;;6.00;99.90;;;;;;4980385;28;20212;-84
2023/05/01 01:29:57;;;;;;;30.48;16.05;;;6.00;99.90;;;;;;4983167;28;20202;-86
2023/05/01 01:33:00;;;;;;;22.30;16.40;;;6.00;99.90;;;;;;4978832;28;20214;-84
2023/05/01 01:35:28;;;;;;;16.17;13.43;;;6.00;99.90;;;;;;4983048;28;20501;-84
2023/05/01 01:38:16;;;;;;;17.67;14.65;;;6.00;99.90;;;;;;4989928;28;20236;-84
2023/05/01 01:40:52;;;;;;;19.33;15.60;;;6.00;99.90;;;;;;4992946;28;20498;-84
2023/05/01 01:43:21;;;;;;;20.55;14.52;;;6.00;99.90;;;;;;4991547;28;20212;-84
2023/05/01 01:45:59;;;;;;;19.65;16.25;;;5.90;99.90;;;;;;5000370;28;20429;-86
2023/05/01 01:48:34;;;;;;;21.15;16.35;;;5.70;99.90;;;;;;5006968;28;20249;-83
2023/05/01 01:51:09;;;;;;;23.90;15.95;;;5.60;99.90;;;;;;4971252;28;20556;-82
2023/05/01 01:53:37;;;;;;;23.10;16.40;;;5.70;99.90;;;;;;4993034;28;20214;-84
2023/05/01 01:56:06;;;;;;;21.63;14.88;;;5.70;99.90;;;;;;4986051;28;20213;-85
2023/05/01 01:58:37;;;;;;;24.90;15.60;;;5.50;99.90;;;;;;4985118;28;20222;-84
2023/05/01 02:01:05;;;;;;;23.35;17.33;;;5.50;99.90;;;;;;4983409;28;20209;-83
2023/05/01 02:03:33;;;;;;;19.33;13.70;;;5.60;99.90;;;;;;4969825;28;20209;-84
2023/05/01 02:06:02;;;;;;;20.02;15.02;;;5.70;99.90;;;;;;4995118;28;20376;-83
2023/05/01 02:08:30;;;;;;;18.52;15.88;;;5.50;99.90;;;;;;4999832;28;20677;-84
2023/05/01 02:10:59;;;;;;;18.60;15.82;;;5.50;99.90;;;;;;4984859;28;20211;-85
2023/05/01 02:13:30;;;;;;;19.85;15.73;;;5.60;99.90;;;;;;4976083;28;20209;-85
2023/05/01 02:16:02;;;;;;;24.08;14.98;;;5.60;99.90;;;;;;4982788;28;20217;-84
2023/05/01 02:18:31;;;;;;;29.40;16.67;;;5.50;99.90;;;;;;4988506;28;20229;-85
2023/05/01 02:20:59;;;;;;;19.88;16.30;;;5.60;99.90;;;;;;4976346;28;20209;-87
2023/05/01 02:23:27;;;;;;;22.05;16.65;;;5.60;99.90;;;;;;4985668;28;20499;-85
2023/05/01 02:25:56;;;;;;;28.25;16.95;;;5.50;99.90;;;;;;5024181;22;20249;-84
2023/05/01 02:28:26;;;;;;;21.65;16.77;;;5.30;99.90;;;;;;4999588;28;20216;-84
2023/05/01 02:30:53;;;;;;;24.42;15.52;;;5.20;99.90;;;;;;4994775;28;20262;-84
2023/05/01 02:33:19;;;;;;;22.90;15.57;;;5.20;99.90;;;;;;4987059;28;20222;-86
2023/05/01 02:35:46;;;;;;;25.65;16.67;;;5.10;99.90;;;;;;4992539;28;20213;-83
2023/05/01 02:38:15;;;;;;;21.50;15.95;;;5.10;99.90;;;;;;4992358;28;20230;-83
2023/05/01 02:40:55;;;;;;;19.67;15.43;;;5.30;99.90;;;;;;4974441;28;20210;-86
2023/05/01 02:43:25;;;;;;;20.65;15.40;;;5.30;99.90;;;;;;4980384;28;20210;-85
2023/05/01 02:45:53;;;;;;;21.73;15.70;;;5.30;99.90;;;;;;4994234;28;20233;-84
2023/05/01 02:48:28;;;;;;;21.65;15.27;;;5.40;99.90;;;;;;5002822;28;20281;-85
2023/05/01 02:50:57;;;;;;;21.63;16.17;;;5.40;99.90;;;;;;5001338;28;20211;-84
2023/05/01 02:53:23;;;;;;;23.30;16.75;;;5.50;99.90;;;;;;4997744;28;20418;-83
2023/05/01 02:55:51;;;;;;;24.02;16.73;;;5.50;99.90;;;;;;4982384;28;20252;-84
2023/05/01 02:58:18;;;;;;;22.58;16.17;;;5.40;99.90;;;;;;4982195;28;20245;-84
2023/05/01 03:00:48;;;;;;;16.85;14.38;;;5.50;99.90;;;;;;4979356;28;20727;-85
2023/05/01 03:03:16;;;;;;;23.38;16.23;;;5.30;99.90;;;;;;4980589;28;20426;-85
2023/05/01 03:05:43;;;;;;;16.15;13.95;;;5.10;99.90;;;;;;4985446;28;20409;-85
2023/05/01 03:08:10;;;;;;;18.70;14.88;;;5.00;99.90;;;;;;4985864;28;20377;-86
2023/05/01 03:10:43;;;;;;;20.60;14.95;;;5.00;99.90;;;;;;4986793;28;20580;-85
2023/05/01 03:13:10;;;;;;;22.13;15.63;;;5.10;99.90;;;;;;4977500;28;20309;-83
2023/05/01 03:15:38;;;;;;;20.60;16.00;;;5.10;99.90;;;;;;4990113;28;20217;-85
2023/05/01 03:18:05;;;;;;;22.33;16.52;;;5.10;99.90;;;;;;4982131;28;20210;-83
2023/05/01 03:20:33;;;;;;;17.83;14.63;;;5.10;99.90;;;;;;4981833;28;20210;-84
2023/05/01 03:23:02;;;;;;;22.42;14.20;;;5.00;99.90;;;;;;4981540;28;20209;-84
2023/05/01 03:25:31;;;;;;;22.20;14.65;;;5.10;99.90;;;;;;4980048;28;20319;-83
2023/05/01 03:27:58;;;;;;;24.52;16.42;;;5.10;99.90;;;;;;4982078;28;20518;-84
2023/05/01 03:30:25;;;;;;;20.30;15.55;;;5.00;99.90;;;;;;4980836;28;20215;-84
2023/05/01 03:32:51;;;;;;;25.42;15.43;;;5.10;99.90;;;;;;4980502;28;20248;-85
2023/05/01 03:35:18;;;;;;;23.05;16.73;;;4.90;99.90;;;;;;4982107;28;20220;-85
2023/05/01 03:37:45;;;;;;;27.25;16.73;;;4.80;99.90;;;;;;4986763;28;20221;-85
2023/05/01 03:40:12;;;;;;;28.65;17.10;;;5.00;99.90;;;;;;4974114;28;20237;-85
2023/05/01 03:42:39;;;;;;;23.10;16.70;;;5.10;99.90;;;;;;4981324;28;20208;-84
2023/05/01 03:45:07;;;;;;;24.00;16.05;;;5.20;99.90;;;;;;4974004;28;20217;-84
2023/05/01 03:47:35;;;;;;;19.13;15.15;;;5.30;99.90;;;;;;4985059;28;20202;-85
2023/05/01 03:50:03;;;;;;;24.33;16.05;;;5.30;99.90;;;;;;4981339;28;20749;-85
2023/05/01 03:52:30;;;;;;;18.50;15.13;;;5.30;99.90;;;;;;4977123;28;20213;-84
2023/05/01 03:54:57;;;;;;;21.42;16.65;;;5.40;99.90;;;;;;4963606;28;20269;-85
2023/05/01 03:57:24;;;;;;;25.45;17.90;;;5.40;99.90;;;;;;4981019;28;20213;-85
2023/05/01 03:59:51;;;;;;;25.90;18.17;;;5.40;99.90;;;;;;4981017;28;20231;-83
2023/05/01 04:02:18;;;;;;;29.67;19.35;;;5.30;99.90;;;;;;4975012;28;20213;-84
2023/05/01 04:04:45;;;;;;;24.48;18.67;;;5.40;99.90;;;;;;4984844;28;20269;-82
2023/05/01 04:07:13;;;;;;;29.58;18.00;;;5.30;99.90;;;;;;4979027;28;20206;-83
2023/05/01 04:09:41;;;;;;;26.02;19.30;;;5.40;99.90;;;;;;4984247;28;20209;-84
2023/05/01 04:12:08;;;;;;;23.27;18.50;;;5.50;99.90;;;;;;4986326;28;20426;-83
2023/05/01 04:14:35;;;;;;;26.35;18.85;;;5.50;99.90;;;;;;4981224;28;20213;-85
2023/05/01 04:17:02;;;;;;;38.08;19.30;;;5.50;99.90;;;;;;4977812;28;20209;-86
2023/05/01 04:19:30;;;;;;;22.40;18.23;;;5.60;99.90;;;;;;4980080;28;20300;-86
2023/05/01 04:21:57;;;;;;;25.20;17.92;;;5.70;99.90;;;;;;4984391;28;20248;-83
2023/05/01 04:24:26;;;;;;;20.95;18.00;;;5.90;99.90;;;;;;4974897;28;20305;-87
2023/05/01 04:26:53;;;;;;;25.02;17.50;;;6.00;99.90;;;;;;4960439;28;20225;-84
2023/05/01 04:29:22;;;;;;;23.42;17.38;;;6.20;99.90;;;;;;4968349;28;20457;-86
2023/05/01 04:31:49;;;;;;;25.80;17.58;;;6.40;99.90;;;;;;4982028;28;20221;-85
2023/05/01 04:34:16;;;;;;;21.25;15.77;;;6.50;99.90;;;;;;4985086;28;20202;-84
2023/05/01 04:36:45;;;;;;;21.35;16.05;;;6.70;99.90;;;;;;4979943;28;20272;-87
2023/05/01 04:39:11;;;;;;;21.63;14.32;;;6.70;99.90;;;;;;4961958;28;20237;-86
2023/05/01 04:41:39;;;;;;;25.65;15.23;;;6.90;99.90;;;;;;4978499;28;20199;-82
2023/05/01 04:44:06;;;;;;;22.08;14.95;;;7.10;99.90;;;;;;4980615;28;20214;-85
2023/05/01 04:46:33;;;;;;;21.88;14.00;;;7.00;99.90;;;;;;4992301;28;20205;-85
2023/05/01 04:49:00;;;;;;;19.75;15.65;;;6.90;99.90;;;;;;4991746;28;20219;-84
2023/05/01 04:51:27;;;;;;;18.77;13.63;;;7.00;99.90;;;;;;4982881;28;20210;-82
2023/05/01 04:53:54;;;;;;;19.50;12.45;;;7.10;99.90;;;;;;4982449;28;20211;-83
2023/05/01 04:56:21;;;;;;;20.83;13.30;;;7.20;99.90;;;;;;4981936;28;20257;-85
2023/05/01 04:58:48;;;;;;;18.35;12.55;;;7.30;99.90;;;;;;4982385;28;20239;-85
2023/05/01 05:01:15;;;;;;;14.18;10.85;;;7.50;99.90;;;;;;4982693;28;20250;-85
2023/05/01 05:03:42;;;;;;;17.38;11.85;;;7.60;99.90;;;;;;4982803;28;20205;-86
2023/05/01 05:06:12;;;;;;;18.73;12.13;;;7.70;99.90;;;;;;4979260;28;20735;-84
2023/05/01 05:08:38;;;;;;;17.70;11.98;;;8.00;99.90;;;;;;4984617;28;20403;-82
2023/05/01 05:11:06;;;;;;;14.35;11.63;;;8.20;99.90;;;;;;4984183;28;20203;-86
2023/05/01 05:13:34;;;;;;;16.40;13.35;;;8.40;99.90;;;;;;4981307;28;20207;-85
2023/05/01 05:16:04;;;;;;;17.65;11.35;;;8.60;99.90;;;;;;4968472;28;20276;-85
2023/05/01 05:18:31;;;;;;;24.45;11.27;;;8.80;99.90;;;;;;4982312;28;20281;-84
2023/05/01 05:21:01;;;;;;;14.18;9.60;;;8.90;99.90;;;;;;4980831;28;20255;-84
2023/05/01 05:23:28;;;;;;;16.13;11.82;;;9.10;99.90;;;;;;4960892;28;20207;-84
2023/05/01 05:26:00;;;;;;;15.25;9.60;;;9.30;99.90;;;;;;4979974;28;20221;-82
2023/05/01 05:28:27;;;;;;;11.70;9.52;;;9.20;99.90;;;;;;4983222;28;20203;-84
2023/05/01 05:30:55;;;;;;;15.15;9.45;;;9.30;99.90;;;;;;4983612;28;20216;-83
2023/05/01 05:33:23;;;;;;;13.65;10.18;;;9.20;99.90;;;;;;4982046;28;20386;-85
2023/05/01 05:35:53;;;;;;;14.10;9.65;;;9.30;99.90;;;;;;4985289;28;20236;-82
2023/05/01 05:38:23;;;;;;;16.38;10.00;;;9.50;99.90;;;;;;4967637;28;20402;-84
2023/05/01 05:40:50;;;;;;;16.83;10.20;;;9.30;99.90;;;;;;4981308;28;20251;-84
2023/05/01 05:43:19;;;;;;;13.00;10.13;;;9.50;99.90;;;;;;4963186;28;20239;-82
2023/05/01 05:45:48;;;;;;;14.43;10.52;;;9.60;99.90;;;;;;4982884;28;20218;-88
2023/05/01 05:48:15;;;;;;;13.90;10.18;;;9.50;99.90;;;;;;4963135;28;20209;-86
2023/05/01 05:50:44;;;;;;;18.13;10.43;;;9.70;99.90;;;;;;4962760;28;20212;-85
2023/05/01 05:53:12;;;;;;;14.68;9.10;;;9.90;99.90;;;;;;4983703;28;20207;-84
2023/05/01 05:55:39;;;;;;;11.98;7.47;;;10.00;99.90;;;;;;4993744;28;20187;-90
2023/05/01 05:58:06;;;;;;;15.23;8.27;;;10.10;99.90;;;;;;4991693;28;20251;-85
2023/05/01 06:00:33;;;;;;;15.20;8.02;;;10.30;99.90;;;;;;4984302;28;20211;-86
2023/05/01 06:03:01;;;;;;;17.25;7.80;;;10.50;99.90;;;;;;4972823;28;20281;-82
2023/05/01 06:05:28;;;;;;;12.23;8.95;;;10.80;99.90;;;;;;4986251;28;20439;-88
2023/05/01 06:07:56;;;;;;;11.75;8.68;;;11.00;99.90;;;;;;4976510;28;20249;-83
2023/05/01 06:10:23;;;;;;;14.20;8.27;;;10.90;99.90;;;;;;4959033;28;20214;-85
2023/05/01 06:12:52;;;;;;;15.95;8.15;;;11.20;99.90;;;;;;4981017;28;20205;-87
2023/05/01 06:15:37;;;;;;;11.27;7.53;;;11.40;99.90;;;;;;4976489;28;20809;-85
2023/05/01 06:18:04;;;;;;;9.07;7.38;;;11.30;99.90;;;;;;4969122;28;20215;-85
2023/05/01 06:20:31;;;;;;;9.63;7.55;;;11.60;99.90;;;;;;4975133;28;20238;-85
2023/05/01 06:22:58;;;;;;;10.98;8.48;;;11.70;99.90;;;;;;4965186;28;20199;-87
2023/05/01 06:25:28;;;;;;;11.85;7.65;;;11.80;99.90;;;;;;4974878;28;20245;-84
2023/05/01 06:27:58;;;;;;;10.45;7.53;;;12.00;99.90;;;;;;4983801;28;20211;-84
2023/05/01 06:30:25;;;;;;;14.18;8.65;;;12.30;99.90;;;;;;4976285;28;20203;-84
2023/05/01 06:32:52;;;;;;;9.93;7.00;;;12.50;99.90;;;;;;4965787;28;20214;-85
2023/05/01 06:35:19;;;;;;;13.07;8.02;;;12.80;99.90;;;;;;4957941;28;20206;-84
2023/05/01 06:37:47;;;;;;;16.30;8.80;;;13.40;99.90;;;;;;4962831;28;20233;-86
2023/05/01 06:40:14;;;;;;;13.38;7.43;;;13.60;99.90;;;;;;4961408;28;20608;-84
2023/05/01 06:42:43;;;;;;;9.98;7.20;;;13.80;99.90;;;;;;4967006;28;20215;-85
2023/05/01 06:45:10;;;;;;;13.23;6.65;;;13.90;99.90;;;;;;4966179;28;20214;-84
2023/05/01 06:47:37;;;;;;;9.40;6.70;;;14.40;99.90;;;;;;4984953;28;20242;-83
2023/05/01 06:50:04;;;;;;;12.23;6.43;;;14.60;99.90;;;;;;5056851;23;20241;-86
2023/05/01 06:52:31;;;;;;;10.50;6.27;;;14.60;99.90;;;;;;5010901;28;20434;-85
2023/05/01 06:54:59;;;;;;;8.63;6.80;;;14.50;99.90;;;;;;5001406;28;20447;-84
2023/05/01 06:57:25;;;;;;;14.67;7.27;;;14.70;99.90;;;;;;5000901;28;20478;-88
2023/05/01 06:59:52;;;;;;;11.40;7.73;;;14.80;99.90;;;;;;4983748;28;20536;-83
2023/05/01 07:02:20;;;;;;;8.60;6.53;;;15.10;99.90;;;;;;5009061;28;20425;-82
2023/05/01 07:04:47;;;;;;;8.17;5.83;;;16.10;99.90;;;;;;5004983;28;20467;-84
2023/05/01 07:07:14;;;;;;;9.40;5.83;;;16.80;99.90;;;;;;4993948;28;20455;-83
2023/05/01 07:09:41;;;;;;;8.40;7.60;;;17.60;99.90;;;;;;4999456;28;20498;-84
2023/05/01 07:12:07;;;;;;;6.83;6.03;;;18.00;99.90;;;;;;5000325;28;20443;-85
2023/05/01 07:14:35;;;;;;;14.57;7.40;;;18.20;99.90;;;;;;4999551;28;20476;-86
2023/05/01 07:17:03;;;;;;;10.10;6.27;;;19.00;98.50;;;;;;4995447;28;20450;-83
2023/05/01 07:19:29;;;;;;;8.07;6.10;;;20.10;95.10;;;;;;5002469;28;20487;-86
2023/05/01 07:21:57;;;;;;;8.23;6.57;;;21.40;90.40;;;;;;5005620;28;20444;-84
2023/05/01 07:24:23;;;;;;;8.83;7.07;;;21.10;86.40;;;;;;5003959;28;20625;-84
2023/05/01 07:26:51;;;;;;;7.07;5.50;;;21.60;80.60;;;;;;4990415;28;20450;-84
2023/05/01 07:29:18;;;;;;;9.03;6.73;;;21.10;76.30;;;;;;5006601;28;20790;-85
2023/05/01 07:31:45;;;;;;;7.63;5.47;;;21.40;77.30;;;;;;5013083;28;20425;-83
2023/05/01 07:34:12;;;;;;;10.20;6.50;;;21.10;74.40;;;;;;5014821;28;20444;-85
2023/05/01 07:36:41;;;;;;;8.00;7.20;;;21.00;76.60;;;;;;5022169;28;20475;-82
2023/05/01 07:39:08;;;;;;;7.13;6.53;;;21.20;74.50;;;;;;5016543;28;20410;-83
2023/05/01 07:41:35;;;;;;;8.40;7.33;;;22.20;69.20;;;;;;5017262;28;20421;-82
2023/05/01 07:44:02;;;;;;;8.77;6.70;;;22.10;67.70;;;;;;5016718;28;20431;-81
2023/05/01 07:46:30;;;;;;;13.70;7.43;;;22.40;67.60;;;;;;5017030;28;20445;-86
2023/05/01 07:48:57;;;;;;;11.37;7.23;;;22.70;66.70;;;;;;4999546;28;20452;-82
2023/05/01 07:51:24;;;;;;;12.97;8.13;;;23.20;65.40;;;;;;5013722;28;20394;-81
2023/05/01 07:53:51;;;;;;;8.47;7.47;;;25.00;59.30;;;;;;5005160;28;20394;-81
2023/05/01 07:56:18;;;;;;;16.40;6.60;;;26.40;56.50;;;;;;5010498;28;20458;-81
2023/05/01 07:58:45;;;;;;;13.90;7.43;;;26.20;54.70;;;;;;5010725;28;20827;-80
2023/05/01 08:01:12;;;;;;;8.17;7.23;;;27.10;51.70;;;;;;5010935;28;20463;-82
2023/05/01 08:03:39;;;;;;;7.50;6.20;;;27.60;48.70;;;;;;5011415;28;20435;-83
2023/05/01 08:06:06;;;;;;;7.00;6.30;;;27.50;48.10;;;;;;5011054;28;20398;-83
2023/05/01 08:08:33;;;;;;;6.80;5.07;;;26.60;47.00;;;;;;5004104;28;20451;-83
2023/05/01 08:11:00;;;;;;;17.80;7.00;;;25.80;47.70;;;;;;5001252;28;20455;-80
2023/05/01 08:13:30;;;;;;;7.17;5.50;;;24.20;49.40;;;;;;5001435;28;20494;-85
2023/05/01 08:16:01;;;;;;;11.83;5.90;;;23.90;50.30;;;;;;5000789;28;20461;-85
2023/05/01 08:18:29;;;;;;;12.00;5.90;;;22.70;53.50;;;;;;4987220;28;20475;-86
2023/05/01 08:20:58;;;;;;;4.80;3.70;;;23.40;53.20;;;;;;5007412;28;20528;-82
2023/05/01 08:23:25;;;;;;;7.27;4.37;;;23.00;51.70;;;;;;5011436;28;20747;-82
2023/05/01 08:25:52;;;;;;;7.87;5.70;;;23.70;51.10;;;;;;5004231;28;20445;-85
2023/05/01 08:28:20;;;;;;;7.20;6.07;;;25.20;50.30;;;;;;5006473;28;20443;-82
2023/05/01 08:30:49;;;;;;;5.40;4.90;;;24.80;49.70;;;;;;5002536;28;20455;-84
2023/05/01 08:33:16;;;;;;;7.30;4.90;;;23.50;52.30;;;;;;5000081;28;20449;-85
2023/05/01 08:35:43;;;;;;;6.43;5.80;;;24.10;52.40;;;;;;4986337;28;20447;-87
2023/05/01 08:38:11;;;;;;;8.27;4.60;;;24.40;51.10;;;;;;5004583;28;20498;-84
2023/05/01 08:40:39;;;;;;;5.10;4.40;;;23.60;50.70;;;;;;4997846;28;20457;-84
2023/05/01 08:43:07;;;;;;;4.90;4.43;;;23.40;51.40;;;;;;5003292;28;20779;-83
2023/05/01 08:45:37;;;;;;;5.00;3.90;;;23.30;51.70;;;;;;5004166;28;20796;-86
2023/05/01 08:48:09;;;;;;;6.03;4.90;;;23.20;51.50;;;;;;5001233;28;20474;-87
2023/05/01 08:50:39;;;;;;;5.00;4.50;;;24.00;50.50;;;;;;5003574;28;20455;-88
2023/05/01 08:53:07;;;;;;;6.00;4.67;;;24.20;49.60;;;;;;4987194;28;20436;-85
2023/05/01 08:55:35;;;;;;;6.10;4.80;;;22.80;51.90;;;;;;5005463;28;20902;-84
2023/05/01 08:58:04;;;;;;;6.20;4.57;;;23.40;51.80;;;;;;5006879;28;20422;-81
2023/05/01 09:00:33;;;;;;;9.07;6.03;;;23.10;51.80;;;;;;5002905;28;20545;-85
2023/05/01 09:03:03;;;;;;;10.20;4.83;;;22.50;52.90;;;;;;5002574;28;20447;-84
2023/05/01 09:05:33;;;;;;;5.63;5.10;;;22.60;53.60;;;;;;4987486;28;20422;-86
2023/05/01 09:08:00;;;;;;;6.43;4.43;;;24.50;52.80;;;;;;5002238;28;20452;-85
2023/05/01 09:10:27;;;;;;;9.20;6.23;;;25.40;49.70;;;;;;5002201;28;20773;-81
2023/05/01 09:12:59;;;;;;;7.00;4.53;;;25.00;49.70;;;;;;5009612;28;20450;-83
2023/05/01 09:15:27;;;;;;;7.13;5.80;;;24.00;50.30;;;;;;4984724;28;20538;-85
2023/05/01 09:17:55;;;;;;;5.50;5.00;;;23.40;52.60;;;;;;5006254;28;20779;-81
2023/05/01 09:20:23;;;;;;;5.83;4.43;;;24.10;50.80;;;;;;5006490;28;20476;-85
2023/05/01 09:22:49;;;;;;;5.40;4.77;;;22.60;51.80;;;;;;5005879;28;20418;-86
2023/05/01 09:25:17;;;;;;;6.73;4.30;;;22.00;54.00;;;;;;4986140;28;20426;-85
2023/05/01 09:27:47;;;;;;;5.70;4.37;;;21.40;55.90;;;;;;4988985;28;20426;-88
2023/05/01 09:30:33;;;;;;;5.40;4.30;;;20.10;58.10;;;;;;4996645;28;20483;-83
2023/05/01 09:33:18;;;;;;;7.07;4.20;;;18.80;58.20;;;;;;4984210;28;20439;-86
2023/05/01 09:35:53;;;;;;;7.40;4.87;;;17.90;63.80;;;;;;5002364;28;20497;-84
2023/05/01 09:38:22;;;;;;;9.50;5.30;;;17.50;68.80;;;;;;4994386;28;20446;-89
2023/05/01 09:40:51;;;;;;;5.93;4.33;;;17.70;70.30;;;;;;5003379;28;20847;-86
2023/05/01 09:43:26;;;;;;;9.73;5.30;;;17.70;68.70;;;;;;5001406;28;20453;-84
2023/05/01 09:46:11;;;;;;;8.40;4.20;;;17.70;69.70;;;;;;5003538;28;20740;-84
2023/05/01 09:48:38;;;;;;;7.63;4.80;;;17.50;70.50;;;;;;4996440;28;20428;-84
2023/05/01 09:51:26;;;;;;;5.00;4.50;;;17.50;70.90;;;;;;5001267;28;20781;-84
2023/05/01 09:54:03;;;;;;;6.17;4.30;;;17.60;74.00;;;;;;4999301;28;20412;-84
2023/05/01 09:56:32;;;;;;;5.27;4.77;;;17.80;75.40;;;;;;5007955;28;20486;-84
2023/05/01 09:59:15;;;;;;;13.60;5.17;;;17.80;76.90;;;;;;5002125;28;20714;-86
2023/05/01 10:01:44;;;;;;;5.83;4.17;;;17.50;77.10;;;;;;5011960;28;20442;-84
2023/05/01 10:04:12;;;;;;;11.60;5.80;;;17.80;80.20;;;;;;5014126;28;20428;-87
2023/05/01 10:06:39;;;;;;;6.37;4.53;;;17.80;80.10;;;;;;5012146;28;20417;-81
2023/05/01 10:09:15;;;;;;;5.60;5.07;;;17.50;83.90;;;;;;5001892;28;20450;-82
2023/05/01 10:11:54;;;;;;;7.17;5.07;;;17.60;84.70;;;;;;5002283;28;20441;-88
2023/05/01 10:14:24;;;;;;;7.27;5.00;;;17.40;82.30;;;;;;5004305;28;20427;-83
2023/05/01 10:16:51;;;;;;;7.10;6.00;;;17.60;87.20;;;;;;5002681;28;20958;-81
2023/05/01 10:19:19;;;;;;;12.27;5.80;;;17.60;86.90;;;;;;5002565;28;20478;-86
2023/05/01 10:21:46;;;;;;;6.77;5.27;;;17.70;85.20;;;;;;5009303;28;20492;-85
2023/05/01 10:24:15;;;;;;;9.50;4.80;;;17.50;87.40;;;;;;5008187;28;20434;-86
2023/05/01 10:26:43;;;;;;;7.60;5.00;;;17.40;85.50;;;;;;5001997;28;20461;-87
2023/05/01 10:29:11;;;;;;;8.10;5.27;;;17.20;85.90;;;;;;5002408;28;20552;-87
2023/05/01 10:31:40;;;;;;;8.50;5.13;;;17.10;83.70;;;;;;5002711;28;20635;-84
2023/05/01 10:34:15;;;;;;;6.83;4.80;;;17.00;83.70;;;;;;5010060;28;20441;-83
2023/05/01 10:36:49;;;;;;;4.87;4.47;;;17.20;85.30;;;;;;5017348;28;20434;-84
2023/05/01 10:39:42;;;;;;;6.53;4.77;;;17.40;82.80;;;;;;4973866;28;20516;-84
2023/05/01 10:42:16;;;;;;;10.03;5.10;;;17.10;85.30;;;;;;5001383;28;20515;-87
2023/05/01 10:44:46;;;;;;;11.27;5.93;;;17.00;83.90;;;;;;5002819;28;20433;-85
2023/05/01 10:47:33;;;;;;;9.03;4.73;;;17.30;82.80;;;;;;5003012;28;20456;-87
2023/05/01 10:50:08;;;;;;;6.50;4.63;;;17.40;78.40;;;;;;5007098;28;20474;-87
2023/05/01 10:53:10;;;;;;;6.80;4.00;;;17.40;75.80;;;;;;5007422;28;20453;-87
2023/05/01 10:55:38;;;;;;;6.50;4.30;;;17.40;74.30;;;;;;4986171;28;20637;-86
2023/05/01 10:58:05;;;;;;;6.20;4.00;;;17.60;75.20;;;;;;4992117;28;20529;-86
2023/05/01 11:00:33;;;;;;;5.97;4.20;;;17.90;74.10;;;;;;4985369;28;20493;-86
2023/05/01 11:03:20;;;;;;;6.60;4.20;;;18.10;75.60;;;;;;5009310;28;20462;-87
2023/05/01 11:05:59;;;;;;;6.27;3.90;;;17.90;72.10;;;;;;5003535;28;20513;-87
2023/05/01 11:08:37;;;;;;;5.70;4.20;;;17.80;70.40;;;;;;4983038;28;20533;-84
2023/05/01 11:11:21;;;;;;;8.87;4.87;;;17.80;70.20;;;;;;5006356;28;20441;-86
2023/05/01 11:13:59;;;;;;;6.33;4.50;;;17.90;70.60;;;;;;5010892;28;20443;-86
2023/05/01 11:16:41;;;;;;;5.90;4.23;;;18.00;68.00;;;;;;4986087;28;20436;-86
2023/05/01 11:19:20;;;;;;;8.83;5.07;;;17.80;70.80;;;;;;4984637;28;20440;-84
2023/05/01 11:21:49;;;;;;;11.93;4.10;;;17.80;68.00;;;;;;4998239;28;20501;-84
2023/05/01 11:24:19;;;;;;;8.30;4.00;;;17.80;71.00;;;;;;4985202;28;20423;-84
2023/05/01 11:26:47;;;;;;;6.00;4.17;;;17.80;70.60;;;;;;5005401;28;20406;-84
2023/05/01 11:32:02;;;;;;;8.27;4.53;;;18.00;68.90;;;;;;4986840;28;20472;-85
2023/05/01 11:34:37;;;;;;;5.87;4.10;;;18.10;70.10;;;;;;4992361;28;20524;-85
2023/05/01 11:37:04;;;;;;;8.43;5.27;;;18.30;70.80;;;;;;4990433;28;20428;-83
2023/05/01 11:39:31;;;;;;;6.23;3.80;;;18.10;70.00;;;;;;4985731;28;20431;-84
2023/05/01 11:42:08;;;;;;;4.70;3.77;;;17.80;67.70;;;;;;4994837;28;20487;-88
2023/05/01 11:44:36;;;;;;;6.27;4.10;;;18.00;67.40;;;;;;4979764;28;20422;-86
2023/05/01 11:47:06;;;;;;;5.70;5.10;;;18.00;66.10;;;;;;4996636;28;20447;-85
2023/05/01 11:49:33;;;;;;;10.80;5.77;;;18.10;67.00;;;;;;4989234;28;20491;-84
2023/05/01 11:51:59;;;;;;;5.87;4.90;;;18.30;68.40;;;;;;4974475;28;20793;-83
2023/05/01 11:54:26;;;;;;;6.07;4.20;;;18.10;66.20;;;;;;4986757;28;20566;-88
2023/05/01 11:57:01;;;;;;;4.50;3.80;;;17.90;67.70;;;;;;4988443;28;20754;-82
2023/05/01 11:59:29;;;;;;;4.20;3.80;;;18.00;64.70;;;;;;4990066;28;20415;-83
2023/05/01 12:01:57;;;;;;;7.00;3.70;;;18.10;60.50;;;;;;4985934;28;20491;-87
2023/05/01 12:04:27;;;;;;;5.60;3.90;;;18.20;62.50;;;;;;4985754;28;20549;-86
2023/05/01 12:06:58;;;;;;;9.90;5.27;;;18.50;63.50;;;;;;4994307;28;20433;-86
2023/05/01 12:09:28;;;;;;;7.33;4.60;;;18.60;63.90;;;;;;4970478;28;20451;-87
2023/05/01 12:11:58;;;;;;;5.33;4.13;;;18.70;61.10;;;;;;4997353;28;20651;-86
2023/05/01 12:14:25;;;;;;;5.03;3.70;;;18.80;63.00;;;;;;4985827;28;20429;-83
2023/05/01 12:16:52;;;;;;;11.70;5.10;;;18.70;62.20;;;;;;5000292;28;20416;-83
2023/05/01 12:19:21;;;;;;;5.07;4.20;;;18.70;63.70;;;;;;4991424;28;20429;-81
2023/05/01 12:22:04;;;;;;;4.60;3.57;;;18.70;63.80;;;;;;4991648;28;20527;-85
2023/05/01 12:24:31;;;;;;;4.63;4.17;;;18.90;61.90;;;;;;5134272;22;20501;-85
2023/05/01 12:27:00;;;;;;;6.73;4.23;;;18.90;62.30;;;;;;5031979;28;20460;-86
2023/05/01 12:29:39;;;;;;;8.47;4.63;;;18.90;61.40;;;;;;5012450;28;20613;-87
2023/05/01 12:32:06;;;;;;;6.97;4.80;;;18.70;61.30;;;;;;5031614;28;20444;-84
2023/05/01 12:34:33;;;;;;;7.07;4.20;;;18.90;62.10;;;;;;5298749;23;20480;-82
2023/05/01 12:37:00;;;;;;;7.43;3.63;;;19.00;62.50;;;;;;5009214;28;20755;-86
2023/05/01 12:39:37;;;;;;;5.70;4.20;;;19.10;59.10;;;;;;5108465;23;20490;-86
2023/05/01 12:42:13;;;;;;;5.17;3.87;;;19.00;59.40;;;;;;4986494;28;20523;-85
2023/05/01 12:44:40;;;;;;;6.70;4.00;;;19.10;59.40;;;;;;4978326;28;20439;-86
2023/05/01 12:47:08;;;;;;;4.30;3.30;;;19.10;59.00;;;;;;4980759;28;20743;-84
2023/05/01 12:49:36;;;;;;;4.23;3.83;;;19.30;60.00;;;;;;4984512;28;20607;-87
2023/05/01 12:52:06;;;;;;;4.40;3.63;;;19.30;58.90;;;;;;4984407;28;20430;-87
2023/05/01 12:54:37;;;;;;;5.03;3.90;;;19.40;59.40;;;;;;4984897;28;20399;-87
2023/05/01 12:57:13;;;;;;;9.23;4.53;;;19.40;58.00;;;;;;4989154;28;20479;-86